Nearby METAR Reports

 

KMTN - Baltimore/Martin, Maryland, USA
Distance from station: SSE 8mi, 13km
Updated: Fri, 17-Apr-2015 10:51pm EDT
Clear
Clear
 Wind from calm
Wind: Calm
Temperature: 61°F , 16°C
Dew Point: 59°F , 15°C
Humidity: 94%
Barometer: 30.00 inHg , 1015.9 hPa
Clouds: Clear
Visibility: 10 miles , 16 km
2015/04/18 02:51 KMTN 180251Z AUTO 00000KT 10SM CLR 16/15 A3000 RMK AO2
KDMH - Baltimore/Dwntwn, Maryland, USA
Distance from station: SW 12mi, 19km
Updated: Fri, 17-Apr-2015 10:54pm EDT

 
Temperature: 66°F , 19°C
Dew Point: 57°F , 14°C
Humidity: 73%
Barometer: 29.98 inHg , 1015.2 hPa
2015/04/18 02:54 KDMH 180254Z AUTO 19/14 A2998 RMK AO1 SLP152 T01940139 51015
 
KBWI - Balto/Wash Intl, Maryland, USA
Distance from station: SSW 20mi, 33km
Updated: Fri, 17-Apr-2015 10:54pm EDT
Partly cloudy
Partly cloudy
 Wind from calm
Wind: Calm
Temperature: 63°F , 17°C
Dew Point: 57°F , 14°C
Humidity: 83%
Barometer: 29.97 inHg , 1014.9 hPa
Clouds: Partly cloudy
Visibility: 10 miles , 16 km
Cloud details: Few Clouds 5500 ft
Partly cloudy 15000 ft
2015/04/18 02:54 KBWI 180254Z 00000KT 10SM FEW055 SCT150 17/14 A2997 RMK AO2 SLP149 T01720139 51013 $
KDMW - Carroll Cnty, Maryland, USA
Distance from station: WNW 30mi, 48km
Updated: Fri, 17-Apr-2015 10:45pm EDT
Clear
Clear
 Wind from calm
Wind: Calm
Temperature: 64°F , 18°C
Dew Point: 55°F , 13°C
Humidity: 73%
Barometer: 30.01 inHg , 1016.3 hPa
Clouds: Clear
Visibility: 10 miles , 16 km
2015/04/18 02:45 KDMW 180245Z AUTO 00000KT 10SM CLR 18/13 A3001 RMK AO2
 
KNAK - Annapolis/Naval, Maryland, USA
Distance from station: S 30mi, 48km
Updated: Fri, 17-Apr-2015 10:54pm EDT
Few Clouds
Few Clouds
 Wind from ESE
Wind: ESE 3 mph , 6 km/h
Temperature: 61°F , 16°C
Dew Point: 55°F , 13°C
Humidity: 83%
Barometer: 29.98 inHg , 1015.2 hPa
Clouds: Few Clouds
Visibility: 10 miles , 16 km
Cloud details: Few Clouds 6000 ft
2015/04/18 02:54 KNAK 180254Z AUTO 12003KT 10SM FEW060 16/13 A2998 RMK AO2 SLP153 60001 T01560133 51012
KW29 - Stevensville, Maryland, USA
Distance from station: SSE 31mi, 50km
Updated: Fri, 17-Apr-2015 10:45pm EDT

 Wind from SSE
Wind: SSE 6 mph , 9 km/h
Temperature: 63°F , 17°C
Dew Point: 63°F , 17°C
Humidity: 100%
Barometer: 29.98 inHg , 1015.2 hPa
Visibility: 10 miles , 16 km
2015/04/18 02:45 KW29 180245Z AUTO 15005KT 10SM 17/17 A2998 RMK AO1
 
KCGS - College Park, Maryland, USA
Distance from station: SW 38mi, 61km
Updated: Fri, 17-Apr-2015 10:45pm EDT
Mostly cloudy
Mostly cloudy
 Wind from calm
Wind: Calm
Temperature: 64°F , 18°C
Dew Point: 61°F , 16°C
Humidity: 88%
Barometer: 29.98 inHg , 1015.2 hPa
Clouds: Mostly cloudy
Visibility: 10 miles , 16 km
Cloud details: Mostly cloudy 7000 ft
Mostly cloudy 8000 ft
2015/04/18 02:45 KCGS 180245Z AUTO 00000KT 10SM BKN070 BKN080 18/16 A2998 RMK AO1
KGAI - Gaithersburg, Maryland, USA
Distance from station: WSW 40mi, 65km
Updated: Fri, 17-Apr-2015 11:15pm EDT
Mostly cloudy
Mostly cloudy
 Wind from calm
Wind: Calm
Temperature: 61°F , 16°C
Dew Point: 54°F , 12°C
Humidity: 77%
Barometer: 30.04 inHg , 1017.3 hPa
Clouds: Mostly cloudy
Visibility: 10 miles , 16 km
Cloud details: Mostly cloudy 5500 ft
2015/04/18 03:15 KGAI 180315Z AUTO 00000KT 10SM BKN055 16/12 A3004 RMK AO1
 
KTHV - York, Pennsylvania, USA
Distance from station: NNW 40mi, 65km
Updated: Fri, 17-Apr-2015 10:53pm EDT
Clear
Clear
 Wind from calm
Wind: Calm
Temperature: 52°F , 11°C
Dew Point: 48°F , 9°C
Humidity: 88%
Barometer: 29.99 inHg , 1015.6 hPa
Clouds: Clear
Visibility: 7 miles , 11 km
2015/04/18 02:53 KTHV 180253Z AUTO 00000KT 7SM CLR 11/09 A2999 RMK AO2 SLP157 T01110094 51010
KFDK - Frederick, Maryland, USA
Distance from station: W 47mi, 75km
Updated: Fri, 17-Apr-2015 10:40pm EDT
Clear
Clear
 Wind from calm
Wind: Calm
Temperature: 59°F , 15°C
Dew Point: 50°F , 10°C
Humidity: 72%
Barometer: 30.02 inHg , 1016.6 hPa
Clouds: Clear
Visibility: 10 miles , 16 km
2015/04/18 02:40 KFDK 180240Z AUTO 00000KT 10SM CLR 15/10 A3002 RMK AO2
 
KESN - Easton/Newnam, Maryland, USA
Distance from station: SSE 48mi, 78km
Updated: Fri, 17-Apr-2015 11:02pm EDT
Light rain, Overcast
Light rain, Overcast
 Wind from calm
Wind: Calm
Temperature: 66°F , 19°C
Dew Point: 66°F , 19°C
Humidity: 100%
Barometer: 30.03 inHg , 1016.9 hPa
Summary: Light rain
Clouds: Overcast
Visibility: 7 miles , 11 km
Cloud details: Partly cloudy 1100 ft
Mostly cloudy 1500 ft
Overcast 5000 ft
2015/04/18 03:02 KESN 180302Z AUTO 00000KT 7SM -RA SCT011 BKN015 OVC050 19/19 A3003 RMK AO2 T01920192
KDCA - Washington/Natl, Washington D.c., USA
Distance from station: SW 49mi, 79km
Updated: Fri, 17-Apr-2015 10:52pm EDT
Mostly cloudy
Mostly cloudy
 Wind from calm
Wind: Calm
Temperature: 70°F , 21°C
Dew Point: 61°F , 16°C
Humidity: 73%
Barometer: 29.99 inHg , 1015.6 hPa
Clouds: Mostly cloudy
Visibility: 10 miles , 16 km
Cloud details: Partly cloudy 6000 ft
Mostly cloudy 8500 ft
2015/04/18 02:52 KDCA 180252Z 00000KT 10SM SCT060 BKN085 21/16 A2999 RMK AO2 SLP154 T02110161 51015
 
KLNS - Lancaster, Pennsylvania, USA
Distance from station: N 49mi, 79km
Updated: Fri, 17-Apr-2015 10:53pm EDT
Clear
Clear
 Wind from W
Wind: W 3 mph , 6 km/h
Temperature: 57°F , 14°C
Dew Point: 50°F , 10°C
Humidity: 77%
Barometer: 29.98 inHg , 1015.2 hPa
Clouds: Clear
Visibility: 8 miles , 13 km
2015/04/18 02:53 KLNS 180253Z 26003KT 8SM CLR 14/10 A2998 RMK AO2 SLP149 T01440100 50009
KILG - Wilmington, Delaware, USA
Distance from station: ENE 50mi, 81km
Updated: Fri, 17-Apr-2015 10:51pm EDT
Partly cloudy
Partly cloudy
 Wind from WSW
Wind: WSW 3 mph , 6 km/h
Temperature: 64°F , 18°C
Dew Point: 59°F , 15°C
Humidity: 83%
Barometer: 29.98 inHg , 1015.2 hPa
Clouds: Partly cloudy
Visibility: 10 miles , 16 km
Cloud details: Partly cloudy 5500 ft
2015/04/18 02:51 KILG 180251Z 25003KT 10SM SCT055 18/15 A2998 RMK AO2 SLP151 T01780150 50009